Lake Wenatchee to Mission Ridge
Lake Wenatchee
Latest observation 09/01 16:00 PDT
| Time (PDT) | Temp °F 1930' | RH % 1930' | Pcp1 in 1930' | PcpSum in 1930' | 24Sno in 1930' | SnoHt in 1930' |
|---|---|---|---|---|---|---|
| 09/01 16:00 | 80 | 33 | 0.00 | 0.00 | 4.7 | 4.0 |
| 09/01 15:00 | 81 | 33 | 0.00 | 0.00 | 5.2 | 4.1 |
| 09/01 14:00 | 78 | 36 | 0.00 | 0.00 | 4.5 | 4.2 |
| 09/01 13:00 | 76 | 37 | 0.00 | 0.00 | 1.8 | 4.8 |
| 09/01 12:00 | 74 | 34 | 0.00 | 0.00 | 1.8 | 4.6 |
| 09/01 11:00 | 67 | 50 | 0.00 | 0.00 | 2.0 | 3.8 |
| 09/01 10:00 | 62 | 62 | 0.00 | 0.00 | 5.0 | 3.2 |
| 09/01 09:00 | 56 | 74 | 0.00 | 0.00 | 4.7 | 4.2 |
| 09/01 08:00 | 51 | 81 | 0.00 | 0.00 | 1.9 | 4.2 |
| 09/01 07:00 | 47 | 90 | 0.00 | 0.00 | 1.2 | 4.1 |
| 09/01 06:00 | 47 | 90 | 0.00 | 0.00 | 1.1 | 3.8 |
| 09/01 05:00 | 47 | 89 | 0.00 | 0.00 | 1.1 | 3.9 |
| 09/01 04:00 | 49 | 87 | 0.00 | 0.00 | 1.1 | 4.0 |
| 09/01 03:00 | 50 | 84 | 0.00 | 0.00 | 1.2 | 4.2 |
| 09/01 02:00 | 51 | 82 | 0.00 | 0.00 | 1.3 | 4.3 |
| 09/01 01:00 | 53 | 77 | 0.00 | 0.00 | 1.5 | 4.3 |
| 09/01 00:00 | 55 | 73 | 0.00 | 0.00 | 3.5 | 4.4 |
| 08/31 23:00 | 57 | 69 | 0.00 | 0.00 | 2.1 | 4.3 |
| 08/31 22:00 | 60 | 64 | 0.00 | 0.00 | 1.5 | 4.3 |
| 08/31 21:00 | 63 | 57 | 0.00 | 0.00 | 1.3 | 4.2 |
| 08/31 20:00 | 68 | 51 | 0.00 | 0.00 | 2.4 | 4.3 |
| 08/31 19:00 | 76 | 31 | 0.00 | 0.00 | 3.6 | 4.4 |
| 08/31 18:00 | 79 | 28 | 0.00 | 0.00 | 4.3 | 3.8 |
| 08/31 17:00 | 80 | 26 | 0.00 | 0.00 | 5.1 | 5.0 |

